Time;durP1;ratioP1;P1;durP2;ratioP2;P2;SDS_P1;SDS_P2;PMS_P1;PMS_P2;Temp;Humidity;BMP_temperature;BMP_pressure;BME280_temperature;BME280_humidity;BME280_pressure;Samples;Min_cycle;Max_cycle;Signal;HPM_P1;HPM_P2
2024/01/18 00:01:42;;;;;;;2.30;2.17;;;;;;;4.48;100.00;99538.13;5032041;28;20258;-74
2024/01/18 00:04:10;;;;;;;3.07;2.60;;;;;;;4.37;100.00;99508.72;5031638;28;20203;-74
2024/01/18 00:06:37;;;;;;;2.07;1.97;;;;;;;3.79;100.00;99420.53;5031805;28;20699;-74
2024/01/18 00:09:03;;;;;;;1.70;1.60;;;;;;;4.37;100.00;99542.06;5031504;28;20236;-74
2024/01/18 00:11:30;;;;;;;2.67;2.57;;;;;;;4.33;100.00;99535.09;5031946;28;20208;-74
2024/01/18 00:13:57;;;;;;;2.47;2.37;;;;;;;4.19;100.00;99533.81;5031337;28;20208;-73
2024/01/18 00:16:24;;;;;;;1.80;1.80;;;;;;;4.25;100.00;99539.13;5031506;28;20208;-74
2024/01/18 00:18:50;;;;;;;3.23;3.07;;;;;;;4.32;100.00;99542.72;5031336;28;20668;-74
2024/01/18 00:21:18;;;;;;;4.37;4.10;;;;;;;4.35;100.00;99522.31;5031314;28;20212;-74
2024/01/18 00:23:45;;;;;;;5.60;1.60;;;;;;;4.12;100.00;99519.03;4996408;28;20196;-73
2024/01/18 00:26:12;;;;;;;1.27;1.27;;;;;;;4.13;100.00;99527.59;5030811;28;20224;-74
2024/01/18 00:28:39;;;;;;;2.53;2.43;;;;;;;4.03;100.00;99512.75;5031171;28;20652;-74
2024/01/18 00:31:05;;;;;;;2.80;2.70;;;;;;;3.72;100.00;99485.25;5031418;28;20214;-74
2024/01/18 00:33:32;;;;;;;1.83;1.83;;;;;;;3.76;100.00;99511.03;5031222;28;20207;-74
2024/01/18 00:35:59;;;;;;;3.77;1.37;;;;;;;3.90;100.00;99511.47;5031310;28;20932;-74
2024/01/18 00:38:27;;;;;;;2.20;1.93;;;;;;;3.74;100.00;99525.53;4996424;28;20600;-74
2024/01/18 00:40:54;;;;;;;2.23;2.20;;;;;;;3.75;100.00;99536.63;5030854;28;20274;-74
2024/01/18 00:43:21;;;;;;;1.40;1.40;;;;;;;3.77;100.00;99505.09;5030871;28;20567;-73
2024/01/18 00:45:47;;;;;;;5.03;2.40;;;;;;;3.94;100.00;99524.47;5030958;28;20594;-74
2024/01/18 00:48:14;;;;;;;3.17;2.73;;;;;;;4.06;100.00;99512.84;5030932;28;20671;-74
2024/01/18 00:50:41;;;;;;;0.90;0.90;;;;;;;3.99;100.00;99511.78;5030859;28;20200;-74
2024/01/18 00:53:08;;;;;;;2.47;2.40;;;;;;;4.06;100.00;99498.34;5030891;28;20671;-74
2024/01/18 00:55:36;;;;;;;2.57;2.00;;;;;;;4.17;100.00;99507.25;5030971;28;20568;-74
2024/01/18 00:58:02;;;;;;;5.97;2.57;;;;;;;4.08;100.00;99518.88;5030869;28;20204;-74
2024/01/18 01:00:29;;;;;;;1.80;1.73;;;;;;;3.89;100.00;99489.22;5031198;28;20240;-73
2024/01/18 01:02:56;;;;;;;1.57;1.57;;;;;;;3.99;100.00;99494.69;5030375;28;20208;-74
2024/01/18 01:05:23;;;;;;;5.70;3.03;;;;;;;3.80;100.00;99458.19;5030886;28;20230;-74
2024/01/18 01:07:50;;;;;;;3.30;3.10;;;;;;;3.88;100.00;99508.00;5031141;28;20235;-74
2024/01/18 01:10:17;;;;;;;5.70;3.93;;;;;;;3.89;100.00;99486.66;5030798;28;20204;-74
2024/01/18 01:12:45;;;;;;;1.13;1.13;;;;;;;4.22;100.00;99515.06;5029707;28;20208;-74
2024/01/18 01:15:12;;;;;;;2.53;2.33;;;;;;;4.13;100.00;99489.13;5030948;28;20264;-74
2024/01/18 01:17:38;;;;;;;1.03;1.03;;;;;;;4.09;100.00;99485.59;5031056;28;20195;-74
2024/01/18 01:20:09;;;;;;;2.77;2.57;;;;;;;4.22;100.00;99499.66;5030679;28;20204;-74
2024/01/18 01:22:36;;;;;;;2.13;1.73;;;;;;;4.30;100.00;99514.47;5030525;28;20288;-73
2024/01/18 01:25:03;;;;;;;1.80;1.80;;;;;;;4.11;100.00;99486.50;5030109;28;20227;-73
2024/01/18 01:27:29;;;;;;;1.50;1.50;;;;;;;4.19;100.00;99499.56;5030460;28;20235;-73
2024/01/18 01:29:58;;;;;;;1.43;1.43;;;;;;;4.28;100.00;99500.72;5030195;28;20204;-73
2024/01/18 01:32:24;;;;;;;1.83;1.83;;;;;;;4.30;100.00;99500.78;5030430;28;20205;-75
2024/01/18 01:34:52;;;;;;;1.30;1.30;;;;;;;4.33;100.00;99504.31;5030400;28;20196;-73
2024/01/18 01:37:18;;;;;;;2.13;2.03;;;;;;;4.21;100.00;99501.34;5030637;28;20192;-73
2024/01/18 01:39:46;;;;;;;3.50;3.20;;;;;;;4.25;100.00;99495.50;5030496;28;20710;-73
2024/01/18 01:42:12;;;;;;;3.87;3.37;;;;;;;3.87;100.00;99434.47;5030514;28;20679;-74
2024/01/18 01:44:39;;;;;;;3.53;3.27;;;;;;;4.17;100.00;99481.59;5030660;28;20551;-74
2024/01/18 01:47:07;;;;;;;2.90;2.80;;;;;;;3.81;100.00;99424.03;5028418;28;20232;-74
2024/01/18 01:49:34;;;;;;;1.50;1.50;;;;;;;4.13;100.00;99481.44;5030908;28;20196;-73
2024/01/18 01:52:02;;;;;;;5.13;1.47;;;;;;;4.27;100.00;99477.59;5030279;28;20246;-73
2024/01/18 01:54:29;;;;;;;1.43;1.43;;;;;;;4.20;100.00;99439.75;5030125;28;20208;-73
2024/01/18 01:57:00;;;;;;;4.47;4.23;;;;;;;4.43;100.00;99469.50;5030392;28;20262;-73
2024/01/18 01:59:27;;;;;;;2.70;2.60;;;;;;;4.40;100.00;99465.16;5030333;28;20212;-73
2024/01/18 02:01:54;;;;;;;1.30;1.30;;;;;;;4.28;100.00;99448.56;5034162;28;20200;-73
2024/01/18 02:04:23;;;;;;;1.47;1.47;;;;;;;4.06;100.00;99430.78;5034309;28;20208;-73
2024/01/18 02:06:52;;;;;;;4.00;3.00;;;;;;;4.17;100.00;99432.84;5034101;28;20676;-73
2024/01/18 02:09:20;;;;;;;2.27;2.17;;;;;;;3.64;100.00;99333.78;5031697;28;20231;-73
2024/01/18 02:11:47;;;;;;;1.00;1.00;;;;;;;4.11;100.00;99414.69;5033629;28;20592;-74
2024/01/18 02:14:13;;;;;;;1.57;1.53;;;;;;;3.89;100.00;99376.41;5034073;28;20215;-73
2024/01/18 02:16:40;;;;;;;1.50;1.50;;;;;;;4.09;100.00;99416.34;5033888;28;20286;-73
2024/01/18 02:19:07;;;;;;;1.90;1.80;;;;;;;3.94;100.00;99406.50;5033919;28;20197;-73
2024/01/18 02:21:35;;;;;;;2.47;2.37;;;;;;;3.84;100.00;99389.09;5033395;28;20795;-73
2024/01/18 02:24:09;;;;;;;4.77;4.03;;;;;;;3.83;100.00;99377.09;5033687;28;20240;-72
2024/01/18 02:26:37;;;;;;;2.53;2.33;;;;;;;3.65;100.00;99360.28;5033719;28;20223;-73
2024/01/18 02:29:04;;;;;;;4.03;3.77;;;;;;;3.65;100.00;99342.34;5034036;28;20212;-73
2024/01/18 02:31:31;;;;;;;2.13;2.03;;;;;;;3.90;100.00;99383.28;5033704;28;20211;-73
2024/01/18 02:33:58;;;;;;;2.40;2.30;;;;;;;3.98;100.00;99381.81;5033722;28;20204;-73
2024/01/18 02:36:24;;;;;;;2.03;1.93;;;;;;;3.73;100.00;99325.50;4999226;28;20200;-73
2024/01/18 02:38:52;;;;;;;3.53;2.57;;;;;;;4.10;100.00;99360.81;5033734;28;20200;-73
2024/01/18 02:41:20;;;;;;;1.50;1.50;;;;;;;4.19;100.00;99361.03;5034094;28;20295;-73
2024/01/18 02:43:48;;;;;;;2.27;2.17;;;;;;;4.27;100.00;99362.16;5033617;28;20282;-74
2024/01/18 02:46:17;;;;;;;25.53;4.10;;;;;;;4.29;100.00;99337.38;5033552;28;20232;-74
2024/01/18 02:48:44;;;;;;;3.23;3.03;;;;;;;4.38;100.00;99353.06;5033481;28;20232;-74
2024/01/18 02:51:11;;;;;;;1.97;1.87;;;;;;;4.52;100.00;99349.16;5031827;28;20204;-73
2024/01/18 02:53:37;;;;;;;1.93;1.87;;;;;;;4.59;100.00;99353.63;5014061;28;20231;-74
2024/01/18 02:56:05;;;;;;;2.93;2.83;;;;;;;4.58;100.00;99357.03;5023740;28;20286;-73
2024/01/18 02:58:32;;;;;;;3.27;3.00;;;;;;;4.68;100.00;99343.59;5033239;28;20200;-73
2024/01/18 03:01:00;;;;;;;2.13;2.03;;;;;;;4.62;100.00;99340.88;5033285;28;20208;-74
2024/01/18 03:03:26;;;;;;;2.93;2.80;;;;;;;4.44;100.00;99312.16;5033222;28;20203;-74
2024/01/18 03:05:53;;;;;;;1.63;1.53;;;;;;;4.39;100.00;99347.94;5032911;28;20232;-74
2024/01/18 03:08:20;;;;;;;3.57;3.37;;;;;;;4.38;100.00;99338.53;5032971;28;20297;-73
2024/01/18 03:10:47;;;;;;;1.70;1.60;;;;;;;4.30;100.00;99309.22;5032862;28;20671;-75
2024/01/18 03:13:13;;;;;;;1.70;1.63;;;;;;;4.17;100.00;99296.91;5033150;28;20208;-75
2024/01/18 03:15:40;;;;;;;2.03;1.93;;;;;;;4.43;100.00;99351.47;5032745;28;20664;-74
2024/01/18 03:18:08;;;;;;;2.23;2.13;;;;;;;4.27;100.00;99324.53;5032866;28;20208;-73
2024/01/18 03:20:35;;;;;;;1.87;1.77;;;;;;;4.37;100.00;99320.50;5032842;28;20216;-74
2024/01/18 03:23:02;;;;;;;1.83;1.83;;;;;;;4.59;100.00;99347.63;5032181;28;20239;-74
2024/01/18 03:25:29;;;;;;;1.50;1.50;;;;;;;4.38;100.00;99317.13;5031861;28;20208;-74
2024/01/18 03:27:56;;;;;;;4.10;3.80;;;;;;;4.77;100.00;99354.13;5032130;28;20211;-74
2024/01/18 03:30:22;;;;;;;1.30;1.30;;;;;;;4.73;100.00;99328.31;5032421;28;20750;-74
2024/01/18 03:32:49;;;;;;;1.40;1.40;;;;;;;4.40;100.00;99272.72;5032399;28;20204;-73
2024/01/18 03:35:18;;;;;;;2.00;2.00;;;;;;;4.92;100.00;99374.19;5031241;28;20626;-74
2024/01/18 03:37:45;;;;;;;1.80;1.80;;;;;;;4.26;100.00;99253.50;5032163;28;20676;-74
2024/01/18 03:40:11;;;;;;;1.57;1.57;;;;;;;4.95;100.00;99351.16;5032191;28;20258;-74
2024/01/18 03:42:41;;;;;;;6.50;2.00;;;;;;;4.88;100.00;99321.00;5032111;28;20196;-74
2024/01/18 03:45:09;;;;;;;4.57;4.13;;;;;;;5.07;100.00;99354.00;5031495;28;20231;-73
2024/01/18 03:47:36;;;;;;;7.70;3.13;;;;;;;4.91;100.00;99341.63;5031758;28;20232;-74
2024/01/18 03:50:05;;;;;;;3.33;3.03;;;;;;;5.12;100.00;99360.16;5032102;28;20574;-73
2024/01/18 03:52:33;;;;;;;1.63;1.63;;;;;;;5.04;100.00;99353.94;5031947;28;20216;-74
2024/01/18 03:55:00;;;;;;;3.07;2.87;;;;;;;4.57;100.00;99285.97;5030641;28;20207;-74
2024/01/18 03:57:26;;;;;;;1.03;1.03;;;;;;;4.82;100.00;99349.09;5031952;28;20208;-73
2024/01/18 03:59:55;;;;;;;2.13;2.10;;;;;;;3.89;100.00;99168.72;5031682;28;20589;-73
2024/01/18 04:02:22;;;;;;;1.57;1.57;;;;;;;4.96;100.00;99347.72;5031705;28;20200;-74
2024/01/18 04:04:48;;;;;;;2.10;2.07;;;;;;;4.74;100.00;99320.66;5031515;28;20619;-74
2024/01/18 04:07:17;;;;;;;1.97;1.80;;;;;;;4.73;100.00;99313.78;5031384;28;20231;-72
2024/01/18 04:09:46;;;;;;;2.67;2.30;;;;;;;4.96;100.00;99345.16;5031176;28;20702;-74
2024/01/18 04:12:14;;;;;;;2.67;2.47;;;;;;;5.00;100.00;99346.97;5031326;28;20725;-74
2024/01/18 04:14:43;;;;;;;7.37;3.47;;;;;;;4.65;100.00;99293.88;5031219;28;20201;-74
2024/01/18 04:17:11;;;;;;;5.23;4.47;;;;;;;4.52;100.00;99284.13;5029553;28;20689;-74
2024/01/18 04:19:38;;;;;;;2.33;2.23;;;;;;;4.67;100.00;99294.78;4996681;28;20283;-74
2024/01/18 04:22:05;;;;;;;4.80;2.67;;;;;;;4.90;100.00;99340.75;5032238;28;20208;-74
2024/01/18 04:24:32;;;;;;;3.80;3.40;;;;;;;4.87;100.00;99340.69;5034406;28;20192;-74
2024/01/18 04:27:00;;;;;;;3.40;3.20;;;;;;;4.86;100.00;99338.94;5037778;28;20212;-74
2024/01/18 04:29:28;;;;;;;1.53;1.53;;;;;;;4.56;100.00;99291.09;5042411;28;20216;-74
2024/01/18 04:31:54;;;;;;;3.03;2.80;;;;;;;4.76;100.00;99325.81;5021955;28;20645;-74
2024/01/18 04:34:21;;;;;;;1.60;1.60;;;;;;;4.13;100.00;99199.28;5031725;28;20235;-74
2024/01/18 04:36:48;;;;;;;2.70;2.60;;;;;;;4.69;100.00;99303.38;5031101;28;20247;-74
2024/01/18 04:39:15;;;;;;;3.43;3.20;;;;;;;4.80;100.00;99323.38;5031509;28;20207;-74
2024/01/18 04:41:42;;;;;;;5.53;2.80;;;;;;;4.62;100.00;99314.34;5030451;28;20620;-73
2024/01/18 04:44:10;;;;;;;2.37;2.27;;;;;;;4.58;100.00;99321.09;5031207;28;20682;-74
2024/01/18 04:46:37;;;;;;;4.17;2.77;;;;;;;4.31;100.00;99305.84;5031353;28;20282;-74
2024/01/18 04:49:04;;;;;;;3.23;2.03;;;;;;;4.15;100.00;99326.75;5030193;28;20646;-74
2024/01/18 04:51:31;;;;;;;2.17;2.13;;;;;;;4.19;100.00;99302.91;5030760;28;20714;-73
2024/01/18 04:53:58;;;;;;;2.60;2.50;;;;;;;4.30;100.00;99296.38;5030913;28;20207;-74
2024/01/18 04:56:26;;;;;;;2.20;1.83;;;;;;;4.35;100.00;99301.66;5030901;28;20211;-73
2024/01/18 04:58:53;;;;;;;2.43;2.33;;;;;;;4.40;100.00;99305.19;4996652;28;20674;-74
2024/01/18 05:01:21;;;;;;;2.27;2.17;;;;;;;4.50;100.00;99300.34;5030579;28;20204;-75
2024/01/18 05:03:48;;;;;;;1.73;1.63;;;;;;;4.40;100.00;99300.94;5030802;28;20624;-74
2024/01/18 05:06:14;;;;;;;4.27;3.47;;;;;;;4.48;100.00;99288.31;5030617;28;20323;-74
2024/01/18 05:08:41;;;;;;;6.20;5.73;;;;;;;4.32;100.00;99286.16;5031148;28;20262;-74
2024/01/18 05:11:08;;;;;;;5.33;4.87;;;;;;;4.16;100.00;99279.75;5030627;28;20208;-74
2024/01/18 05:13:35;;;;;;;1.93;1.93;;;;;;;3.78;100.00;99249.63;5012261;28;20196;-74
2024/01/18 05:16:02;;;;;;;3.20;2.95;;;;;;;4.44;100.00;99282.22;5029717;28;20535;-74
2024/01/18 05:18:30;;;;;;;1.77;1.77;;;;;;;4.20;100.00;99249.94;5030638;28;20208;-73
2024/01/18 05:20:57;;;;;;;10.13;3.83;;;;;;;4.03;100.00;99256.31;5030473;28;20201;-74
2024/01/18 05:23:24;;;;;;;3.83;3.53;;;;;;;3.73;100.00;99230.66;4995052;28;20194;-73
2024/01/18 05:25:50;;;;;;;1.77;1.77;;;;;;;3.87;100.00;99265.25;5029858;28;20216;-74
2024/01/18 05:28:17;;;;;;;2.20;2.10;;;;;;;3.82;100.00;99257.41;5030496;28;20695;-74
2024/01/18 05:30:44;;;;;;;1.17;1.17;;;;;;;3.68;100.00;99252.72;5030680;28;20573;-75
2024/01/18 05:33:11;;;;;;;1.37;1.37;;;;;;;3.66;100.00;99246.69;5029252;28;20575;-73
2024/01/18 05:35:39;;;;;;;2.03;2.03;;;;;;;3.77;100.00;99235.06;5034207;28;20214;-76
2024/01/18 05:38:06;;;;;;;2.03;1.97;;;;;;;3.65;100.00;99233.00;5028654;28;20235;-74
2024/01/18 05:40:33;;;;;;;16.50;2.90;;;;;;;3.81;100.00;99244.59;5025825;28;20640;-75
2024/01/18 05:42:59;;;;;;;3.10;3.00;;;;;;;4.00;100.00;99244.25;5034779;28;20198;-75
2024/01/18 05:45:26;;;;;;;2.53;1.67;;;;;;;4.07;100.00;99238.44;5034505;28;20196;-74
2024/01/18 05:47:53;;;;;;;2.40;2.20;;;;;;;4.18;100.00;99246.44;5034287;28;20671;-75
2024/01/18 05:50:20;;;;;;;1.97;1.93;;;;;;;4.26;100.00;99253.50;5034188;28;20695;-74
2024/01/18 05:52:48;;;;;;;3.77;3.47;;;;;;;4.36;100.00;99262.31;5034415;28;20672;-76
2024/01/18 05:55:15;;;;;;;8.93;2.40;;;;;;;4.41;100.00;99261.63;5034282;28;20698;-75
2024/01/18 05:57:42;;;;;;;2.83;2.63;;;;;;;4.47;100.00;99260.91;5016029;28;20200;-76
2024/01/18 06:00:10;;;;;;;3.17;2.37;;;;;;;4.68;100.00;99265.69;5034446;28;20293;-75
2024/01/18 06:02:37;;;;;;;3.53;3.23;;;;;;;4.67;100.00;99266.56;5015723;28;20635;-75
2024/01/18 06:05:06;;;;;;;1.77;1.67;;;;;;;4.48;100.00;99257.50;5034087;28;20338;-75
2024/01/18 06:07:33;;;;;;;4.23;3.47;;;;;;;4.40;100.00;99233.34;5034147;28;20294;-75
2024/01/18 06:10:01;;;;;;;3.53;3.40;;;;;;;4.69;100.00;99252.03;5033863;28;20275;-75
2024/01/18 06:12:28;;;;;;;2.03;1.97;;;;;;;4.67;100.00;99248.59;5015475;28;20208;-76
2024/01/18 06:14:55;;;;;;;1.53;1.53;;;;;;;4.71;100.00;99255.53;5033847;28;20196;-70
2024/01/18 06:17:21;;;;;;;2.10;2.00;;;;;;;4.76;100.00;99259.94;5033546;28;20593;-70
2024/01/18 06:19:48;;;;;;;1.70;1.60;;;;;;;4.81;100.00;99267.75;5032007;28;20428;-72
2024/01/18 06:22:15;;;;;;;3.73;2.77;;;;;;;4.69;100.00;99265.75;5030766;28;20227;-74
2024/01/18 06:24:42;;;;;;;2.30;2.20;;;;;;;4.77;100.00;99277.09;5032912;28;20204;-74
2024/01/18 06:27:10;;;;;;;5.90;2.63;;;;;;;4.80;100.00;99269.47;5032426;28;20223;-74
2024/01/18 06:29:37;;;;;;;2.40;2.30;;;;;;;4.89;100.00;99279.06;5033350;28;20212;-73
2024/01/18 06:32:04;;;;;;;1.87;1.87;;;;;;;4.58;100.00;99248.34;4998817;28;20212;-73
2024/01/18 06:34:30;;;;;;;2.37;2.00;;;;;;;4.44;100.00;99259.13;5033214;28;20212;-73
2024/01/18 06:36:57;;;;;;;2.73;2.53;;;;;;;4.38;100.00;99282.06;5033216;28;20228;-75
2024/01/18 06:39:24;;;;;;;3.70;3.17;;;;;;;4.15;100.00;99266.88;5033665;28;20203;-73
2024/01/18 06:41:51;;;;;;;2.37;2.27;;;;;;;3.60;100.00;99192.72;5033317;28;20207;-73
2024/01/18 06:44:19;;;;;;;2.43;2.37;;;;;;;4.10;100.00;99269.34;5032890;28;20232;-73
2024/01/18 06:46:46;;;;;;;1.43;1.43;;;;;;;3.99;100.00;99281.00;5023013;28;20225;-73
2024/01/18 06:49:13;;;;;;;2.67;1.77;;;;;;;3.71;100.00;99261.38;5033029;28;20200;-73
2024/01/18 06:51:40;;;;;;;2.67;2.43;;;;;;;4.00;100.00;99262.19;5031470;28;20674;-72
2024/01/18 06:54:07;;;;;;;1.70;1.70;;;;;;;3.82;100.00;99261.69;5025984;28;20201;-73
2024/01/18 06:56:33;;;;;;;2.27;2.17;;;;;;;3.94;100.00;99246.66;5028936;28;20291;-74
2024/01/18 06:59:01;;;;;;;3.40;3.20;;;;;;;4.17;100.00;99245.59;5025130;28;20207;-73
2024/01/18 07:01:29;;;;;;;2.47;2.37;;;;;;;4.30;100.00;99265.59;5032721;28;20230;-74
2024/01/18 07:03:56;;;;;;;3.73;3.50;;;;;;;4.23;100.00;99235.47;5032788;28;20227;-73
2024/01/18 07:06:22;;;;;;;3.83;2.90;;;;;;;4.31;100.00;99256.22;5032896;28;20200;-73
2024/01/18 07:08:50;;;;;;;2.27;2.17;;;;;;;4.38;100.00;99237.59;5032842;28;20645;-73
2024/01/18 07:11:18;;;;;;;1.53;1.53;;;;;;;4.59;100.00;99262.91;5030559;28;20672;-73
2024/01/18 07:13:45;;;;;;;2.00;2.00;;;;;;;4.46;100.00;99242.06;5028575;28;20208;-74
2024/01/18 07:16:11;;;;;;;1.13;1.13;;;;;;;4.65;100.00;99242.53;5023200;28;20203;-74
2024/01/18 07:18:40;;;;;;;2.43;2.37;;;;;;;4.79;100.00;99238.59;5026825;28;20762;-74
2024/01/18 07:21:06;;;;;;;7.77;3.37;;;;;;;4.52;100.00;99213.13;5026167;28;20212;-74
2024/01/18 07:23:33;;;;;;;1.93;1.90;;;;;;;4.37;100.00;99223.00;5032063;28;20600;-72
2024/01/18 07:26:00;;;;;;;1.97;1.93;;;;;;;4.42;100.00;99219.72;5032195;28;20212;-73
2024/01/18 07:28:28;;;;;;;5.57;3.30;;;;;;;4.16;100.00;99210.50;5021407;28;20239;-76
2024/01/18 07:30:55;;;;;;;3.27;3.07;;;;;;;4.05;100.00;99191.41;5032567;28;20619;-77
2024/01/18 07:33:21;;;;;;;4.33;3.37;;;;;;;4.16;100.00;99189.97;5032684;28;20215;-74
2024/01/18 07:35:50;;;;;;;2.30;2.20;;;;;;;4.05;100.00;99198.22;5032203;28;20597;-75
2024/01/18 07:38:16;;;;;;;4.20;4.00;;;;;;;3.93;100.00;99191.94;5030253;28;20211;-74
2024/01/18 07:40:43;;;;;;;3.53;3.33;;;;;;;3.90;100.00;99180.72;4981278;28;20208;-75
2024/01/18 07:43:10;;;;;;;4.20;3.87;;;;;;;4.25;100.00;99185.06;5032372;28;20216;-77
2024/01/18 07:45:37;;;;;;;5.43;2.60;;;;;;;4.30;100.00;99196.31;5032059;28;20595;-78
2024/01/18 07:48:04;;;;;;;6.83;2.70;;;;;;;4.28;100.00;99192.00;4997554;28;20255;-79
2024/01/18 07:50:30;;;;;;;3.70;3.40;;;;;;;4.47;100.00;99187.34;4997956;28;20200;-77
2024/01/18 07:52:59;;;;;;;3.63;3.33;;;;;;;4.56;100.00;99193.53;5032241;28;20204;-77
2024/01/18 07:55:25;;;;;;;2.07;1.97;;;;;;;4.45;100.00;99194.16;5031816;28;20566;-77
2024/01/18 07:57:52;;;;;;;1.80;1.70;;;;;;;4.66;100.00;99191.22;5031468;28;20220;-77
2024/01/18 08:00:19;;;;;;;2.37;1.63;;;;;;;4.78;100.00;99180.41;5031837;28;20262;-72
2024/01/18 08:02:46;;;;;;;2.33;2.23;;;;;;;5.11;100.00;99190.53;5031755;28;20207;-77
2024/01/18 08:05:13;;;;;;;1.67;1.67;;;;;;;4.89;100.00;99138.69;5031797;28;20200;-75
2024/01/18 08:07:40;;;;;;;8.37;2.57;;;;;;;4.98;100.00;99150.88;5031728;28;20244;-79
2024/01/18 08:10:09;;;;;;;3.13;2.93;;;;;;;5.19;100.00;99163.31;5031723;28;20666;-77
2024/01/18 08:12:36;;;;;;;8.23;3.03;;;;;;;5.35;100.00;99160.25;5031414;28;20236;-77
2024/01/18 08:15:04;;;;;;;4.43;4.10;;;;;;;5.31;100.00;99161.03;5031635;28;20227;-76
2024/01/18 08:17:31;;;;;;;2.13;2.07;;;;;;;5.29;100.00;99158.41;5031242;28;20627;-77
2024/01/18 08:19:57;;;;;;;2.77;2.67;;;;;;;5.23;100.00;99167.69;5031826;28;20233;-77
2024/01/18 08:22:24;;;;;;;2.60;2.50;;;;;;;5.21;100.00;99156.53;4993478;28;20212;-75
2024/01/18 08:24:51;;;;;;;5.57;3.93;;;;;;;5.49;100.00;99161.41;5030540;28;20203;-77
2024/01/18 08:27:19;;;;;;;2.93;2.83;;;;;;;5.31;100.00;99141.34;5031535;28;20231;-77
2024/01/18 08:29:47;;;;;;;2.07;2.07;;;;;;;5.56;100.00;99160.69;5031295;28;20208;-76
2024/01/18 08:32:13;;;;;;;0.80;0.80;;;;;;;5.56;100.00;99150.41;5031169;28;20200;-77
2024/01/18 08:34:39;;;;;;;3.73;3.50;;;;;;;5.71;100.00;99154.94;5031207;28;20211;-76
2024/01/18 08:37:06;;;;;;;1.07;1.07;;;;;;;6.01;100.00;99152.13;5031156;28;20204;-76
2024/01/18 08:39:33;;;;;;;6.50;4.10;;;;;;;5.55;100.00;99062.97;5031148;28;20211;-76
2024/01/18 08:41:59;;;;;;;3.93;3.73;;;;;;;5.43;100.00;99107.28;5031421;28;20641;-76
2024/01/18 08:44:28;;;;;;;2.83;1.93;;;;;;;5.22;100.00;99064.03;4996587;28;20204;-75
2024/01/18 08:46:55;;;;;;;2.90;2.17;;;;;;;5.50;100.00;99125.44;5031560;28;20291;-76
2024/01/18 08:49:24;;;;;;;4.43;3.23;;;;;;;5.45;100.00;99065.38;5031164;28;20234;-76
2024/01/18 08:51:51;;;;;;;3.60;3.13;;;;;;;5.46;100.00;99097.06;5031049;28;20668;-75
2024/01/18 08:54:20;;;;;;;1.90;1.87;;;;;;;5.57;100.00;99068.97;5031231;28;20196;-76
2024/01/18 08:56:47;;;;;;;4.50;4.20;;;;;;;5.83;100.00;99083.19;4996116;28;20274;-77
2024/01/18 08:59:14;;;;;;;3.50;3.10;;;;;;;6.21;100.00;99102.72;5030722;28;20243;-75
2024/01/18 09:01:42;;;;;;;4.23;3.10;;;;;;;6.26;100.00;99083.09;4979947;28;20200;-77
2024/01/18 09:04:09;;;;;;;2.07;1.97;;;;;;;5.93;100.00;99055.09;5030787;28;20207;-69
2024/01/18 09:06:36;;;;;;;14.73;13.77;;;;;;;5.83;100.00;99072.91;4980007;28;20215;-76
2024/01/18 09:09:03;;;;;;;7.63;7.03;;;;;;;5.33;100.00;99075.41;5030897;28;20612;-76
2024/01/18 09:11:30;;;;;;;1.77;1.77;;;;;;;5.31;100.00;99061.66;5029828;28;20614;-74
2024/01/18 09:13:58;;;;;;;18.03;2.63;;;;;;;4.55;100.00;98971.94;5030524;28;20232;-76
2024/01/18 09:16:24;;;;;;;5.07;4.53;;;;;;;5.10;100.00;99040.66;5030649;28;20676;-75
2024/01/18 09:18:52;;;;;;;2.07;1.87;;;;;;;5.38;100.00;99026.66;5030137;28;20208;-75
2024/01/18 09:21:19;;;;;;;2.83;2.73;;;;;;;5.87;100.00;99077.28;5030744;28;20192;-75
2024/01/18 09:23:46;;;;;;;5.57;4.63;;;;;;;5.76;100.00;99060.75;4979365;28;20203;-75
2024/01/18 09:26:13;;;;;;;2.60;2.50;;;;;;;5.83;100.00;99067.75;4993626;28;20200;-75
2024/01/18 09:28:40;;;;;;;5.90;2.13;;;;;;;6.17;100.00;99064.91;5029920;28;20227;-76
2024/01/18 09:31:09;;;;;;;1.67;1.57;;;;;;;6.36;100.00;99050.63;5012358;28;20200;-74
2024/01/18 09:33:37;;;;;;;4.63;2.90;;;;;;;6.51;100.00;99050.00;5030373;28;20196;-75
2024/01/18 09:36:06;;;;;;;2.07;1.97;;;;;;;6.15;100.00;99034.88;5029857;28;20219;-75
2024/01/18 09:38:34;;;;;;;2.43;2.33;;;;;;;6.12;100.00;99017.69;5030749;28;20291;-74
2024/01/18 09:41:04;;;;;;;5.00;4.00;;;;;;;6.20;100.00;99008.38;5029436;28;20211;-74
2024/01/18 09:43:37;;;;;;;4.73;4.43;;;;;;;6.13;100.00;99010.84;5024507;28;20578;-75
2024/01/18 09:46:05;;;;;;;1.20;1.20;;;;;;;5.89;100.00;98981.28;5030065;28;20275;-75
2024/01/18 09:48:33;;;;;;;2.10;2.00;;;;;;;6.05;100.00;98995.28;4999170;28;20224;-76
2024/01/18 09:51:00;;;;;;;2.57;2.47;;;;;;;6.32;100.00;98967.34;4975758;28;20205;-75
2024/01/18 09:53:29;;;;;;;3.20;2.63;;;;;;;6.66;100.00;98978.97;5022505;28;20204;-75
2024/01/18 09:56:00;;;;;;;2.83;2.73;;;;;;;6.53;100.00;98979.63;5029743;28;20192;-75
2024/01/18 09:58:27;;;;;;;1.43;1.43;;;;;;;6.64;100.00;98990.94;5029545;28;20232;-75
2024/01/18 10:00:56;;;;;;;7.60;3.50;;;;;;;6.77;100.00;98989.41;5029632;28;20200;-74
2024/01/18 10:03:23;;;;;;;3.00;2.80;;;;;;;6.83;100.00;98964.59;5029853;28;20238;-75
2024/01/18 10:05:50;;;;;;;4.80;2.83;;;;;;;6.70;100.00;98959.28;5029740;28;20208;-77
2024/01/18 10:08:16;;;;;;;3.23;2.10;;;;;;;7.03;100.00;98974.28;5029581;28;20295;-75
2024/01/18 10:10:45;;;;;;;2.63;2.53;;;;;;;7.30;100.00;98965.09;5029722;28;20204;-76
2024/01/18 10:13:13;;;;;;;5.83;3.57;;;;;;;7.17;100.00;98952.09;5029842;28;20204;-75
2024/01/18 10:15:41;;;;;;;1.93;1.87;;;;;;;7.33;100.00;98959.97;5029885;28;20266;-75
2024/01/18 10:18:09;;;;;;;5.50;4.37;;;;;;;7.71;100.00;98967.19;5029344;28;20206;-75
2024/01/18 10:20:36;;;;;;;2.43;2.33;;;;;;;7.95;100.00;98983.72;5031808;28;20223;-75
2024/01/18 10:23:03;;;;;;;2.57;2.53;;;;;;;8.11;100.00;98971.78;4998533;28;20208;-75
2024/01/18 10:25:31;;;;;;;3.13;2.93;;;;;;;8.04;100.00;98967.44;5033293;28;20200;-75
2024/01/18 10:27:59;;;;;;;2.00;2.00;;;;;;;7.59;100.00;98977.41;4998446;28;20227;-76
2024/01/18 10:30:26;;;;;;;3.60;3.40;;;;;;;7.74;100.00;98972.38;5025986;28;20211;-75
2024/01/18 10:32:53;;;;;;;1.67;1.67;;;;;;;7.33;100.00;98993.50;4975668;28;20204;-77
2024/01/18 10:35:24;;;;;;;2.93;2.80;;;;;;;7.25;100.00;98977.06;5033339;28;20197;-76
2024/01/18 10:38:01;;;;;;;1.20;1.20;;;;;;;7.52;100.00;98980.78;5033324;28;20660;-76
2024/01/18 10:40:30;;;;;;;5.63;3.23;;;;;;;7.54;100.00;98987.66;5032854;28;20246;-75
2024/01/18 10:42:57;;;;;;;1.77;1.43;;;;;;;6.95;100.00;98873.69;5021197;28;20228;-75
2024/01/18 10:45:28;;;;;;;1.47;1.47;;;;;;;7.26;100.00;98960.75;5033078;28;20192;-76
2024/01/18 10:47:56;;;;;;;1.77;1.77;;;;;;;7.32;100.00;98972.84;5033027;28;20266;-77
2024/01/18 10:50:23;;;;;;;3.33;3.10;;;;;;;7.34;100.00;98966.88;5030524;28;20246;-77
2024/01/18 10:52:51;;;;;;;7.87;5.53;;;;;;;7.35;100.00;98960.84;5021848;28;20203;-78
2024/01/18 10:55:18;;;;;;;2.10;1.43;;;;;;;7.42;100.00;98951.44;5033221;28;20200;-75
2024/01/18 10:57:45;;;;;;;5.77;2.60;;;;;;;7.81;100.00;98953.53;5020209;28;20200;-76
2024/01/18 11:00:15;;;;;;;5.47;3.83;;;;;;;7.76;100.00;98956.06;5036667;28;20694;-76
2024/01/18 11:02:44;;;;;;;3.33;3.13;;;;;;;7.67;100.00;98942.22;5037357;28;20204;-76
2024/01/18 11:05:12;;;;;;;4.67;3.80;;;;;;;7.63;100.00;98937.91;5037157;28;20200;-77
2024/01/18 11:07:40;;;;;;;4.60;4.33;;;;;;;7.54;100.00;98922.31;5036398;28;20295;-76
2024/01/18 11:10:11;;;;;;;4.17;3.17;;;;;;;7.94;100.00;98924.38;5033553;28;20228;-75
2024/01/18 11:12:41;;;;;;;3.87;3.60;;;;;;;7.79;100.00;98921.66;5032373;28;20742;-73
2024/01/18 11:15:11;;;;;;;5.80;5.30;;;;;;;7.87;100.00;98922.59;5032716;28;20266;-73
2024/01/18 11:17:46;;;;;;;4.57;4.20;;;;;;;7.49;100.00;98893.94;5032889;28;20228;-76
2024/01/18 11:20:13;;;;;;;3.93;3.53;;;;;;;7.74;100.00;98931.09;5033470;28;20208;-75
2024/01/18 11:22:40;;;;;;;3.00;2.77;;;;;;;7.29;100.00;98914.38;4981305;28;20572;-76
2024/01/18 11:25:09;;;;;;;1.93;1.83;;;;;;;7.39;100.00;98900.72;5032209;28;20283;-75
2024/01/18 11:27:38;;;;;;;5.17;4.73;;;;;;;7.29;100.00;98886.03;5032098;28;20306;-76
2024/01/18 11:30:09;;;;;;;4.37;4.03;;;;;;;7.27;100.00;98872.28;5018507;28;20303;-75
2024/01/18 11:32:35;;;;;;;3.13;2.93;;;;;;;7.33;100.00;98862.00;5031995;28;20758;-75
2024/01/18 11:35:11;;;;;;;2.70;2.60;;;;;;;7.14;100.00;98777.63;5032167;28;20291;-77